• Join FlightAware (Why Join?)
  • Login
  • US Flag 
10:12AM EDT


 

Airport Tracker/Info


-or-


 

Live Flight TrackerFlight Track Log ✈ UCA3596 ✈ 07-Jul-2014 ✈ KEWR - KBGM

Flight Track Log - Related Links

Times and Time Zones

All times are in EDT time to prevent confusion due to time zone crossing. See the UCA3596 flight status page for this flight to view local times or setup timezone preferences in your user account.

Time Position Orientation Groundspeed Altitude Reporting Facility
EDT Latitude Longitude Course Direction KTS MPH feet Rate Location/Type
08:28PM 40.6833 -74.2167 246° West 135 155 1,800  Level New York TRACON
08:29PM 40.6667 -74.2667 246° West 152 175 2,800 960 Climbing New York TRACON
08:30PM 40.6667 -74.3333 270° West 175 201 3,800 600 Climbing New York TRACON
08:31PM 40.6500 -74.4000 252° West 201 231 4,100 120 Climbing New York TRACON
08:32PM 40.6333 -74.4667 252° West 219 252 4,100  Level New York TRACON
08:33PM 40.6167 -74.5500 255° West 222 255 4,100  Level New York TRACON
08:34PM 40.6167 -74.6333 258° West 226 260 4,100  Level New York TRACON
08:35PM 40.6167 -74.7167 270° West 230 265 4,100  Level New York TRACON
08:36PM 40.6333 -74.8000 285° West 228 262 4,100 480 Level New York TRACON
08:37PM 40.6461 -74.8847 281° West 208 239 5,200 840 Climbing New York Center
08:38PM 40.6539 -74.9589 278° West 183 211 6,100 360 Climbing New York Center
08:39PM 40.6744 -75.0286 291° West 226 260 6,000 -60 Descending New York Center
08:40PM 40.7133 -75.1022 305° West 239 275 6,000  Level New York Center
08:42PM 40.7965 -75.1499 286° West  Level Estimated
08:49PM 41.0164 -75.4500 North  Level FlightAware Approximate
08:50PM 41.0827 -75.4538 357° North  Level FlightAware Approximate
08:51PM 41.1490 -75.4589 357° North  Level FlightAware Approximate
08:52PM 41.2152 -75.4640 357° North  Level FlightAware Approximate
08:53PM 41.2815 -75.4667 North  Level FlightAware Approximate
08:54PM 41.3479 -75.4667 North  Level FlightAware Approximate
08:55PM 41.4142 -75.4667 North  Level FlightAware Approximate
08:56PM 41.4778 -75.4778 323° Northwest  Level FlightAware Approximate
08:57PM 41.5310 -75.5308 323° Northwest  Level FlightAware Approximate
08:58PM 41.5841 -75.5839 323° Northwest  Level FlightAware Approximate
08:59PM 41.6373 -75.6370 323° Northwest  Level FlightAware Approximate
09:00PM 41.6904 -75.6903 323° Northwest  Level FlightAware Approximate
09:01PM 41.7478 -75.7332 338° Northwest  Level FlightAware Approximate
09:02PM 41.8095 -75.7661 338° Northwest  Level FlightAware Approximate
09:03PM 41.8712 -75.7989 338° Northwest  Level FlightAware Approximate
09:04PM 41.9328 -75.8319 338° Northwest  Level FlightAware Approximate
09:05PM 41.9954 -75.8615 343° North  Level FlightAware Approximate
09:06PM 42.0575 -75.8908 323° Northwest  Level FlightAware Approximate
09:07PM 42.1154 -75.9327 340° North  Level FlightAware Approximate
09:08PM 42.1790 -75.9583 343° North  Level FlightAware Approximate
09:09PM 42.2000 -75.9667 North  Level FlightAware Approximate
09:10PM 42.2084 -75.9796 90° East  Level Estimated
09:11PM 42.2084 -75.9796 North  Level Estimated
09:12PM 42.2084 -75.9796 131° Southeast  Level Estimated
09:13PM 42.2084 -75.9796 North  Level Estimated
09:14PM 42.2084 -75.9796 131° Southeast  Level Estimated
09:15PM 42.2084 -75.9796 North  Level Estimated
09:16PM 42.2084 -75.9796 131° Southeast  Level Estimated